Time;durP1;ratioP1;P1;durP2;ratioP2;P2;SDS_P1;SDS_P2;PMS_P1;PMS_P2;Temp;Humidity;BMP_temperature;BMP_pressure;BME280_temperature;BME280_humidity;BME280_pressure;Samples;Min_cycle;Max_cycle;Signal;HPM_P1;HPM_P2
2023/08/12 00:01:03;;;;;;;2.33;2.13;;;;;;;;;;6068265;29;20301;-76
2023/08/12 00:04:07;;;;;;;4.80;2.67;;;;;;;;;;6068415;29;20314;-76
2023/08/12 00:07:11;;;;;;;3.00;2.30;;;;;;;;;;6067971;29;20309;-76
2023/08/12 00:10:16;;;;;;;3.85;2.40;;;;;;;;;;6067770;29;20391;-75
2023/08/12 00:13:21;;;;;;;5.72;3.55;;;;;;;;;;6067612;29;20249;-75
2023/08/12 00:16:26;;;;;;;4.30;2.50;;;;;;;;;;6067563;29;20297;-75
2023/08/12 00:19:30;;;;;;;7.70;2.75;;;;;;;;;;6067840;29;20418;-77
2023/08/12 00:22:33;;;;;;;4.72;2.58;;;;;;;;;;6068108;29;20570;-76
2023/08/12 00:25:37;;;;;;;2.80;2.60;;;;;;;;;;6071033;29;20309;-75
2023/08/12 00:28:41;;;;;;;5.07;3.05;;;;;;;;;;6067541;29;20305;-76
2023/08/12 00:31:46;;;;;;;10.00;2.60;;;;;;;;;;6067868;29;20586;-77
2023/08/12 00:34:51;;;;;;;6.85;2.80;;;;;;;;;;6051146;29;20581;-75
2023/08/12 00:37:55;;;;;;;3.72;2.50;;;;;;;;;;6044853;29;20301;-77
2023/08/12 00:40:59;;;;;;;3.80;2.55;;;;;;;;;;6043352;29;20305;-79
2023/08/12 00:44:02;;;;;;;7.22;2.70;;;;;;;;;;6044270;29;20305;-79
2023/08/12 00:47:08;;;;;;;3.13;2.80;;;;;;;;;;6044031;29;20300;-78
2023/08/12 00:50:14;;;;;;;3.22;2.90;;;;;;;;;;6043168;29;20297;-78
2023/08/12 00:53:18;;;;;;;3.58;2.38;;;;;;;;;;6044767;29;20329;-79
2023/08/12 00:56:22;;;;;;;5.18;3.00;;;;;;;;;;6044100;29;20415;-79
2023/08/12 00:59:26;;;;;;;5.10;3.03;;;;;;;;;;6044203;29;20321;-79
2023/08/12 01:02:31;;;;;;;7.65;3.50;;;;;;;;;;6044925;29;20461;-79
2023/08/12 01:05:36;;;;;;;7.40;3.47;;;;;;;;;;6042722;29;20490;-78
2023/08/12 01:08:46;;;;;;;4.43;3.33;;;;;;;;;;6042842;29;20297;-79
2023/08/12 01:11:52;;;;;;;5.55;3.35;;;;;;;;;;6060790;29;20312;-79
2023/08/12 01:15:00;;;;;;;4.70;3.35;;;;;;;;;;6065786;29;20301;-79
2023/08/12 01:18:06;;;;;;;4.57;3.38;;;;;;;;;;6066460;29;20304;-79
2023/08/12 01:21:13;;;;;;;5.45;3.30;;;;;;;;;;6066920;29;20583;-79
2023/08/12 01:24:22;;;;;;;5.88;3.15;;;;;;;;;;6065822;29;20324;-79
2023/08/12 01:27:26;;;;;;;6.68;3.30;;;;;;;;;;6067943;29;20330;-77
2023/08/12 01:30:30;;;;;;;4.53;2.85;;;;;;;;;;6069437;29;20293;-77
2023/08/12 01:33:43;;;;;;;2.50;2.40;;;;;;;;;;6064153;29;20305;-78
2023/08/12 01:36:53;;;;;;;2.60;2.47;;;;;;;;;;6047309;29;20277;-80
2023/08/12 01:40:01;;;;;;;2.85;2.40;;;;;;;;;;6047936;29;20297;-79
2023/08/12 01:43:07;;;;;;;2.50;2.30;;;;;;;;;;6051111;29;20294;-79
2023/08/12 01:46:12;;;;;;;3.10;2.35;;;;;;;;;;6045895;29;20298;-79
2023/08/12 01:49:16;;;;;;;5.53;2.63;;;;;;;;;;6046895;29;20550;-79
2023/08/12 01:52:20;;;;;;;6.25;2.78;;;;;;;;;;6046700;29;20297;-79
2023/08/12 01:55:25;;;;;;;2.75;2.53;;;;;;;;;;6046019;29;20297;-79
2023/08/12 01:58:29;;;;;;;7.07;2.25;;;;;;;;;;6046408;29;20298;-77
2023/08/12 02:01:33;;;;;;;4.72;2.78;;;;;;;;;;6048389;29;20294;-79
2023/08/12 02:04:38;;;;;;;2.85;2.50;;;;;;;;;;6047437;29;20305;-77
2023/08/12 02:07:42;;;;;;;2.63;2.42;;;;;;;;;;6048093;29;20305;-79
2023/08/12 02:10:47;;;;;;;5.40;2.72;;;;;;;;;;6055237;29;20468;-79
2023/08/12 02:13:51;;;;;;;4.90;2.40;;;;;;;;;;6068197;29;20313;-78
2023/08/12 02:16:56;;;;;;;2.50;2.30;;;;;;;;;;6069520;29;20440;-78
2023/08/12 02:20:00;;;;;;;4.30;3.17;;;;;;;;;;6069028;29;20309;-78
2023/08/12 02:23:06;;;;;;;2.92;2.42;;;;;;;;;;6069762;29;20441;-78
2023/08/12 02:26:11;;;;;;;4.53;2.80;;;;;;;;;;6070047;29;20293;-78
2023/08/12 02:29:15;;;;;;;3.08;2.50;;;;;;;;;;6068487;29;20302;-78
2023/08/12 02:32:19;;;;;;;4.25;2.53;;;;;;;;;;6070561;29;20297;-78
2023/08/12 02:35:22;;;;;;;3.00;2.70;;;;;;;;;;6050275;29;20302;-78
2023/08/12 02:38:26;;;;;;;3.63;2.70;;;;;;;;;;6046316;29;20297;-78
2023/08/12 02:41:32;;;;;;;6.63;3.15;;;;;;;;;;6046094;29;20293;-78
2023/08/12 02:44:36;;;;;;;2.95;2.70;;;;;;;;;;6045345;29;20345;-77
2023/08/12 02:47:40;;;;;;;2.65;2.55;;;;;;;;;;6046752;29;20313;-78
2023/08/12 02:50:44;;;;;;;3.13;2.70;;;;;;;;;;6046598;29;20301;-78
2023/08/12 02:53:48;;;;;;;4.93;3.03;;;;;;;;;;6045269;29;20312;-79
2023/08/12 02:56:53;;;;;;;5.15;2.20;;;;;;;;;;6046867;29;20593;-78
2023/08/12 02:59:57;;;;;;;3.20;2.90;;;;;;;;;;6044776;29;20294;-78
2023/08/12 03:03:00;;;;;;;2.70;2.50;;;;;;;;;;6049058;29;20306;-78
2023/08/12 03:06:04;;;;;;;2.38;2.17;;;;;;;;;;6067793;29;20318;-78
2023/08/12 03:09:08;;;;;;;2.33;2.20;;;;;;;;;;6067617;29;20589;-78
2023/08/12 03:12:14;;;;;;;2.58;2.30;;;;;;;;;;6047960;29;20301;-78
2023/08/12 03:15:18;;;;;;;2.22;2.10;;;;;;;;;;6044419;29;20302;-78
2023/08/12 03:18:22;;;;;;;2.40;2.10;;;;;;;;;;6044758;29;20285;-79
2023/08/12 03:21:26;;;;;;;2.75;2.30;;;;;;;;;;6046333;29;20298;-78
2023/08/12 03:24:30;;;;;;;2.78;2.10;;;;;;;;;;6044945;29;20602;-78
2023/08/12 03:27:35;;;;;;;2.05;1.92;;;;;;;;;;6044886;29;20554;-79
2023/08/12 03:30:40;;;;;;;2.22;1.95;;;;;;;;;;6045584;29;20309;-79
2023/08/12 03:33:44;;;;;;;4.10;2.20;;;;;;;;;;6050722;29;20545;-79
2023/08/12 03:36:50;;;;;;;2.00;1.90;;;;;;;;;;6055995;29;20314;-79
2023/08/12 03:39:55;;;;;;;5.07;2.47;;;;;;;;;;6044340;29;20301;-78
2023/08/12 03:43:00;;;;;;;2.22;2.13;;;;;;;;;;6045814;29;20586;-78
2023/08/12 03:46:04;;;;;;;5.10;2.30;;;;;;;;;;6045016;29;20305;-78
2023/08/12 03:49:08;;;;;;;2.03;1.92;;;;;;;;;;6045366;29;20301;-78
2023/08/12 03:52:12;;;;;;;2.35;2.20;;;;;;;;;;6044449;29;20393;-79
2023/08/12 03:55:16;;;;;;;2.20;2.00;;;;;;;;;;6045106;29;20297;-79
2023/08/12 03:58:21;;;;;;;2.55;2.35;;;;;;;;;;6043817;29;20297;-79
2023/08/12 04:01:25;;;;;;;2.10;2.00;;;;;;;;;;6044683;29;20319;-78
2023/08/12 04:04:29;;;;;;;3.30;2.00;;;;;;;;;;6046953;29;20306;-78
2023/08/12 04:07:33;;;;;;;3.08;2.08;;;;;;;;;;6045131;29;20293;-78
2023/08/12 04:10:37;;;;;;;2.40;2.17;;;;;;;;;;6053894;29;20305;-80
2023/08/12 04:13:42;;;;;;;2.00;1.90;;;;;;;;;;6068831;29;20300;-80
2023/08/12 04:16:48;;;;;;;4.32;2.35;;;;;;;;;;6070943;29;20296;-80
2023/08/12 04:19:53;;;;;;;3.00;2.20;;;;;;;;;;6066250;29;20304;-80
2023/08/12 04:22:57;;;;;;;3.53;2.20;;;;;;;;;;6067893;29;20300;-79
2023/08/12 04:26:01;;;;;;;2.03;1.90;;;;;;;;;;6066573;29;20296;-78
2023/08/12 04:29:07;;;;;;;4.20;2.22;;;;;;;;;;6066879;29;20313;-78
2023/08/12 04:32:14;;;;;;;2.25;2.00;;;;;;;;;;6068843;29;20297;-78
2023/08/12 04:35:20;;;;;;;2.00;1.90;;;;;;;;;;6039805;29;20314;-78
2023/08/12 04:38:24;;;;;;;2.65;1.90;;;;;;;;;;6020162;29;20554;-78
2023/08/12 04:41:33;;;;;;;2.60;2.40;;;;;;;;;;6021100;29;20301;-78
2023/08/12 04:44:40;;;;;;;2.08;1.88;;;;;;;;;;6005788;29;20294;-79
2023/08/12 04:47:44;;;;;;;2.72;2.42;;;;;;;;;;6021179;29;20314;-77
2023/08/12 04:50:51;;;;;;;2.00;1.90;;;;;;;;;;6005503;29;20352;-80
2023/08/12 04:53:55;;;;;;;1.80;1.80;;;;;;;;;;6005471;29;20310;-80
2023/08/12 04:56:59;;;;;;;2.65;1.83;;;;;;;;;;6022082;29;20302;-79
2023/08/12 05:00:08;;;;;;;2.03;1.88;;;;;;;;;;6021618;29;20310;-78
2023/08/12 05:03:12;;;;;;;3.63;2.13;;;;;;;;;;6006739;29;20295;-79
2023/08/12 05:06:16;;;;;;;1.73;1.63;;;;;;;;;;6026808;29;20495;-79
2023/08/12 05:09:22;;;;;;;3.50;1.88;;;;;;;;;;6025773;29;20298;-79
2023/08/12 05:12:25;;;;;;;1.70;1.65;;;;;;;;;;6011686;29;20481;-80
2023/08/12 05:15:31;;;;;;;2.92;1.60;;;;;;;;;;6025618;29;20313;-77
2023/08/12 05:18:35;;;;;;;2.05;1.58;;;;;;;;;;6024273;29;20315;-79
2023/08/12 05:21:39;;;;;;;1.70;1.60;;;;;;;;;;6026369;29;20259;-79
2023/08/12 05:24:43;;;;;;;1.67;1.58;;;;;;;;;;6025622;29;20310;-78
2023/08/12 05:27:47;;;;;;;5.07;1.50;;;;;;;;;;6025129;29;20282;-79
2023/08/12 05:30:54;;;;;;;1.45;1.40;;;;;;;;;;6025156;29;20294;-79
2023/08/12 05:33:58;;;;;;;3.17;1.48;;;;;;;;;;6041739;29;20321;-79
2023/08/12 05:37:02;;;;;;;1.98;1.55;;;;;;;;;;6070223;29;20292;-78
2023/08/12 05:40:09;;;;;;;1.70;1.40;;;;;;;;;;6070892;29;20305;-79
2023/08/12 05:43:13;;;;;;;1.40;1.33;;;;;;;;;;6070677;29;20308;-78
2023/08/12 05:46:18;;;;;;;3.78;1.75;;;;;;;;;;6071374;29;20493;-79
2023/08/12 05:49:22;;;;;;;1.65;1.55;;;;;;;;;;6071049;29;20313;-78
2023/08/12 05:52:26;;;;;;;2.58;1.50;;;;;;;;;;6071072;29;20296;-78
2023/08/12 05:55:30;;;;;;;3.03;1.48;;;;;;;;;;6070631;29;20532;-78
2023/08/12 05:58:33;;;;;;;2.47;2.28;;;;;;;;;;6070862;29;20308;-79
2023/08/12 06:01:39;;;;;;;1.98;1.70;;;;;;;;;;6071189;29;20296;-78
2023/08/12 06:04:42;;;;;;;1.70;1.60;;;;;;;;;;6070656;29;20289;-78
2023/08/12 06:07:46;;;;;;;4.50;2.28;;;;;;;;;;6071140;29;20296;-79
2023/08/12 06:10:50;;;;;;;4.88;2.38;;;;;;;;;;6059425;29;20305;-79
2023/08/12 06:13:54;;;;;;;4.10;2.25;;;;;;;;;;6046805;29;20460;-79
2023/08/12 06:16:59;;;;;;;2.08;1.77;;;;;;;;;;6047643;29;20542;-78
2023/08/12 06:20:03;;;;;;;2.50;2.08;;;;;;;;;;6047247;29;20306;-79
2023/08/12 06:23:07;;;;;;;4.53;2.38;;;;;;;;;;6047495;29;20305;-79
2023/08/12 06:26:11;;;;;;;6.75;2.63;;;;;;;;;;6050439;29;20321;-79
2023/08/12 06:29:14;;;;;;;2.58;2.20;;;;;;;;;;6047137;29;20301;-79
2023/08/12 06:32:19;;;;;;;2.03;1.88;;;;;;;;;;6048111;29;20302;-79
2023/08/12 06:35:23;;;;;;;2.92;2.17;;;;;;;;;;6067236;29;20301;-79
2023/08/12 06:38:27;;;;;;;4.00;2.15;;;;;;;;;;6071093;29;20312;-79
2023/08/12 06:41:31;;;;;;;2.85;1.83;;;;;;;;;;6070418;29;20296;-79
2023/08/12 06:44:35;;;;;;;2.65;1.70;;;;;;;;;;6069810;29;20554;-79
2023/08/12 06:47:40;;;;;;;1.73;1.73;;;;;;;;;;6069969;29;20609;-77
2023/08/12 06:50:44;;;;;;;3.60;1.80;;;;;;;;;;6069684;29;20301;-79
2023/08/12 06:53:48;;;;;;;1.48;1.48;;;;;;;;;;6069412;29;20508;-79
2023/08/12 06:56:52;;;;;;;1.90;1.80;;;;;;;;;;6069718;29;20309;-79
2023/08/12 06:59:55;;;;;;;2.42;1.75;;;;;;;;;;6070967;29;20308;-78
2023/08/12 07:03:01;;;;;;;2.17;1.98;;;;;;;;;;6067404;29;20293;-78
2023/08/12 07:06:04;;;;;;;2.70;1.92;;;;;;;;;;6069675;29;20489;-79
2023/08/12 07:09:08;;;;;;;2.00;1.90;;;;;;;;;;6069127;29;20301;-80
2023/08/12 07:12:12;;;;;;;2.90;1.90;;;;;;;;;;6047957;29;20305;-79
2023/08/12 07:15:16;;;;;;;3.00;1.80;;;;;;;;;;6045811;29;20346;-80
2023/08/12 07:18:22;;;;;;;1.88;1.58;;;;;;;;;;6045894;29;20321;-79
2023/08/12 07:21:26;;;;;;;1.63;1.30;;;;;;;;;;6046470;29;20306;-79
2023/08/12 07:24:30;;;;;;;2.47;2.10;;;;;;;;;;6043440;29;20294;-77
2023/08/12 07:27:34;;;;;;;2.08;1.65;;;;;;;;;;6045704;29;20535;-79
2023/08/12 07:30:38;;;;;;;2.25;2.03;;;;;;;;;;6044673;29;20301;-79
2023/08/12 07:33:43;;;;;;;2.22;2.10;;;;;;;;;;6052151;29;20301;-84
2023/08/12 07:36:47;;;;;;;2.03;1.88;;;;;;;;;;6070022;29;20266;-84
2023/08/12 07:39:51;;;;;;;2.83;1.95;;;;;;;;;;6069003;29;20525;-80
2023/08/12 07:42:55;;;;;;;2.28;1.73;;;;;;;;;;6069208;29;20297;-79
2023/08/12 07:45:59;;;;;;;1.95;1.85;;;;;;;;;;6068292;29;20298;-79
2023/08/12 07:49:14;;;;;;;4.07;2.17;;;;;;;;;;6068840;29;20305;-78
2023/08/12 07:52:18;;;;;;;2.60;1.80;;;;;;;;;;6052299;29;20300;-82
2023/08/12 07:55:21;;;;;;;2.20;2.10;;;;;;;;;;6069144;29;20301;-83
2023/08/12 07:58:29;;;;;;;2.58;1.90;;;;;;;;;;6070168;29;20321;-80
2023/08/12 08:01:33;;;;;;;2.17;1.90;;;;;;;;;;6071120;29;20289;-85
2023/08/12 08:04:41;;;;;;;1.90;1.80;;;;;;;;;;6068814;29;20342;-77
2023/08/12 08:07:45;;;;;;;4.40;1.65;;;;;;;;;;6071384;29;20581;-83
2023/08/12 08:10:49;;;;;;;3.40;1.60;;;;;;;;;;6057253;29;20298;-82
2023/08/12 08:13:53;;;;;;;4.32;1.77;;;;;;;;;;6045085;29;20487;-81
2023/08/12 08:16:57;;;;;;;3.67;1.80;;;;;;;;;;6045524;29;20318;-81
2023/08/12 08:20:05;;;;;;;4.82;1.63;;;;;;;;;;6045078;29;20310;-79
2023/08/12 08:23:08;;;;;;;2.85;2.20;;;;;;;;;;6045413;29;20571;-84
2023/08/12 08:26:15;;;;;;;1.98;1.80;;;;;;;;;;6044389;29;20301;-80
2023/08/12 08:29:19;;;;;;;3.25;1.85;;;;;;;;;;6044761;29;20473;-80
2023/08/12 08:32:23;;;;;;;2.20;1.70;;;;;;;;;;6045072;29;20309;-81
2023/08/12 08:35:28;;;;;;;4.47;1.90;;;;;;;;;;6064270;29;20485;-83
2023/08/12 08:38:32;;;;;;;2.05;1.52;;;;;;;;;;6069808;29;20508;-81
2023/08/12 08:41:39;;;;;;;2.42;1.50;;;;;;;;;;6073245;29;20589;-83
2023/08/12 08:44:44;;;;;;;1.90;1.70;;;;;;;;;;6072638;29;20300;-79
2023/08/12 08:47:48;;;;;;;2.08;1.75;;;;;;;;;;6075499;29;20300;-77
2023/08/12 08:50:53;;;;;;;2.45;1.73;;;;;;;;;;6072044;29;20300;-79
2023/08/12 08:53:58;;;;;;;3.30;2.15;;;;;;;;;;6072339;29;20443;-80
2023/08/12 08:57:07;;;;;;;1.65;1.60;;;;;;;;;;6072744;29;20309;-78
2023/08/12 09:00:29;;;;;;;1.70;1.60;;;;;;;;;;6072249;29;20305;-78
2023/08/12 09:03:33;;;;;;;2.20;2.00;;;;;;;;;;6070970;29;20293;-78
2023/08/12 09:06:40;;;;;;;1.90;1.80;;;;;;;;;;6072064;29;20301;-80
2023/08/12 09:09:47;;;;;;;2.20;1.80;;;;;;;;;;6069188;29;20554;-84
2023/08/12 09:12:52;;;;;;;1.83;1.50;;;;;;;;;;6048924;29;20590;-83
2023/08/12 09:15:56;;;;;;;1.70;1.60;;;;;;;;;;6048525;29;20301;-80
2023/08/12 09:19:01;;;;;;;2.05;1.67;;;;;;;;;;6049025;29;20316;-86
2023/08/12 09:22:09;;;;;;;2.58;1.95;;;;;;;;;;6050138;29;20302;-82
2023/08/12 09:25:13;;;;;;;1.83;1.73;;;;;;;;;;6048277;29;20293;-78
2023/08/12 09:28:17;;;;;;;1.88;1.77;;;;;;;;;;6049695;29;20301;-82
2023/08/12 09:31:26;;;;;;;1.70;1.60;;;;;;;;;;6052814;29;20301;-85
2023/08/12 09:34:30;;;;;;;1.77;1.77;;;;;;;;;;6061701;29;20289;-79
2023/08/12 09:37:35;;;;;;;2.17;1.55;;;;;;;;;;6071480;29;20301;-80
2023/08/12 09:40:39;;;;;;;4.43;1.70;;;;;;;;;;6071126;29;20301;-82
2023/08/12 09:43:43;;;;;;;2.00;1.67;;;;;;;;;;6071695;29;20297;-79
2023/08/12 09:46:47;;;;;;;4.63;2.08;;;;;;;;;;6070979;29;20304;-79
2023/08/12 09:49:51;;;;;;;1.58;1.48;;;;;;;;;;6069483;29;20297;-77
2023/08/12 09:52:56;;;;;;;3.88;1.85;;;;;;;;;;6070873;29;20485;-77
2023/08/12 09:56:03;;;;;;;2.63;1.90;;;;;;;;;;6070524;29;20472;-83
2023/08/12 09:59:08;;;;;;;1.58;1.50;;;;;;;;;;6070957;29;20582;-79
2023/08/12 10:02:18;;;;;;;1.88;1.80;;;;;;;;;;6070999;29;20293;-78
2023/08/12 10:05:25;;;;;;;1.63;1.52;;;;;;;;;;6070318;29;20313;-81
2023/08/12 10:08:31;;;;;;;2.40;2.20;;;;;;;;;;6070502;29;20301;-80
2023/08/12 10:11:35;;;;;;;1.58;1.48;;;;;;;;;;6053810;29;20305;-79
2023/08/12 10:14:40;;;;;;;2.17;1.85;;;;;;;;;;6046897;29;20493;-80
2023/08/12 10:17:44;;;;;;;1.73;1.63;;;;;;;;;;6047187;29;20305;-80
2023/08/12 10:20:49;;;;;;;2.25;2.08;;;;;;;;;;6045447;29;20489;-79
2023/08/12 10:23:54;;;;;;;1.85;1.75;;;;;;;;;;6046941;29;20309;-79
2023/08/12 10:26:58;;;;;;;3.05;1.88;;;;;;;;;;6047379;29;20313;-79
2023/08/12 10:30:04;;;;;;;1.85;1.75;;;;;;;;;;6046843;29;20301;-80
2023/08/12 10:33:08;;;;;;;1.50;1.50;;;;;;;;;;6048939;29;20301;-78
2023/08/12 10:36:12;;;;;;;2.28;1.80;;;;;;;;;;6070567;29;20300;-80
2023/08/12 10:39:18;;;;;;;1.83;1.70;;;;;;;;;;6069688;29;20309;-79
2023/08/12 10:42:43;;;;;;;1.85;1.85;;;;;;;;;;6070197;29;20377;-80
2023/08/12 10:45:49;;;;;;;4.85;2.05;;;;;;;;;;6061476;29;20301;-81
2023/08/12 10:49:05;;;;;;;1.48;1.48;;;;;;;;;;6069716;29;20561;-79
2023/08/12 10:52:27;;;;;;;1.60;1.50;;;;;;;;;;6070767;29;20491;-78
2023/08/12 10:55:32;;;;;;;1.90;1.80;;;;;;;;;;6070400;29;20301;-79
2023/08/12 10:58:42;;;;;;;2.88;1.55;;;;;;;;;;6069808;29;20320;-80
2023/08/12 11:01:46;;;;;;;1.60;1.60;;;;;;;;;;6069522;29;20297;-82
2023/08/12 11:05:02;;;;;;;2.15;2.05;;;;;;;;;;6069613;29;20309;-82
2023/08/12 11:08:06;;;;;;;1.92;1.77;;;;;;;;;;6071348;29;20310;-82
2023/08/12 11:11:20;;;;;;;2.20;1.63;;;;;;;;;;6057002;29;20313;-82
2023/08/12 11:14:25;;;;;;;1.75;1.75;;;;;;;;;;6047132;29;20310;-77
2023/08/12 11:17:33;;;;;;;2.00;1.70;;;;;;;;;;6046164;29;20305;-82
2023/08/12 11:20:37;;;;;;;2.47;2.30;;;;;;;;;;6046745;29;20306;-83
2023/08/12 11:23:41;;;;;;;2.20;1.92;;;;;;;;;;6046538;29;20498;-82
2023/08/12 11:26:47;;;;;;;2.08;1.88;;;;;;;;;;6047013;29;20389;-78
2023/08/12 11:29:51;;;;;;;3.28;1.75;;;;;;;;;;6046191;29;20305;-84
2023/08/12 11:32:56;;;;;;;2.00;1.90;;;;;;;;;;6047210;29;20306;-82
2023/08/12 11:36:00;;;;;;;2.20;2.10;;;;;;;;;;6052088;29;20313;-76
2023/08/12 11:39:04;;;;;;;1.90;1.90;;;;;;;;;;6069488;29;20306;-79
2023/08/12 11:42:10;;;;;;;2.70;2.17;;;;;;;;;;6068300;29;20293;-79
2023/08/12 11:45:16;;;;;;;3.00;2.40;;;;;;;;;;6069535;29;20304;-76
2023/08/12 11:48:21;;;;;;;2.33;2.22;;;;;;;;;;6069840;29;20377;-77
2023/08/12 11:51:25;;;;;;;2.65;2.55;;;;;;;;;;6070997;29;20293;-78
2023/08/12 11:54:29;;;;;;;3.03;2.20;;;;;;;;;;6069537;29;20309;-77
2023/08/12 11:57:35;;;;;;;2.20;2.00;;;;;;;;;;6069316;29;20286;-77
2023/08/12 12:00:39;;;;;;;2.60;2.30;;;;;;;;;;6071434;29;20301;-77
2023/08/12 12:03:43;;;;;;;2.22;2.10;;;;;;;;;;6069473;29;20393;-78
2023/08/12 12:06:47;;;;;;;2.03;2.03;;;;;;;;;;6069418;29;20285;-76
2023/08/12 12:09:53;;;;;;;2.22;2.20;;;;;;;;;;6065710;29;20310;-77
2023/08/12 12:12:58;;;;;;;2.22;2.17;;;;;;;;;;6045808;29;20298;-78
2023/08/12 12:16:02;;;;;;;2.20;2.10;;;;;;;;;;6031607;29;20301;-77
2023/08/12 12:19:07;;;;;;;2.03;2.03;;;;;;;;;;6047227;29;20302;-78
2023/08/12 12:22:11;;;;;;;1.92;1.90;;;;;;;;;;6048075;29;20289;-79
2023/08/12 12:25:19;;;;;;;2.58;2.38;;;;;;;;;;6048939;29;20358;-78
2023/08/12 12:28:25;;;;;;;6.65;1.95;;;;;;;;;;6048933;29;20298;-76
2023/08/12 12:31:28;;;;;;;3.08;2.75;;;;;;;;;;6047185;29;20310;-79
2023/08/12 12:34:33;;;;;;;2.13;2.03;;;;;;;;;;6060433;29;20304;-77
2023/08/12 12:37:37;;;;;;;3.83;2.15;;;;;;;;;;6071318;29;20306;-78
2023/08/12 12:40:41;;;;;;;2.88;2.38;;;;;;;;;;6071188;29;20308;-79
2023/08/12 12:43:46;;;;;;;2.30;2.20;;;;;;;;;;6077511;29;20491;-80
2023/08/12 12:46:50;;;;;;;2.53;2.33;;;;;;;;;;6078168;29;20373;-79
2023/08/12 12:49:54;;;;;;;2.80;2.70;;;;;;;;;;6080361;29;20318;-82
2023/08/12 12:52:58;;;;;;;3.30;2.95;;;;;;;;;;6071108;29;20305;-77
2023/08/12 12:56:03;;;;;;;2.25;2.20;;;;;;;;;;6071379;29;20301;-78
2023/08/12 12:59:09;;;;;;;2.95;2.60;;;;;;;;;;6072341;29;20344;-78
2023/08/12 13:02:13;;;;;;;2.45;2.35;;;;;;;;;;6073576;29;20290;-78
2023/08/12 13:05:17;;;;;;;2.42;2.22;;;;;;;;;;6072935;29;20321;-78
2023/08/12 13:08:21;;;;;;;2.42;2.33;;;;;;;;;;6073102;29;20305;-76
2023/08/12 13:11:25;;;;;;;3.25;2.85;;;;;;;;;;6067105;29;20258;-77
2023/08/12 13:14:30;;;;;;;2.63;2.42;;;;;;;;;;6059916;29;20297;-77
2023/08/12 13:17:34;;;;;;;2.03;1.98;;;;;;;;;;6060922;29;20257;-78
2023/08/12 13:20:38;;;;;;;3.40;2.38;;;;;;;;;;6060353;29;20310;-77
2023/08/12 13:23:42;;;;;;;3.28;2.47;;;;;;;;;;6061196;29;20253;-78
2023/08/12 13:26:46;;;;;;;2.88;2.15;;;;;;;;;;6064167;29;20266;-77
2023/08/12 13:29:51;;;;;;;2.08;1.98;;;;;;;;;;6063726;29;20269;-78
2023/08/12 13:32:55;;;;;;;4.25;2.25;;;;;;;;;;6065461;29;20265;-77
2023/08/12 13:36:01;;;;;;;2.65;2.45;;;;;;;;;;6087702;29;20241;-77
2023/08/12 13:39:05;;;;;;;3.25;2.55;;;;;;;;;;6087618;29;20309;-76
2023/08/12 13:42:09;;;;;;;2.60;2.40;;;;;;;;;;6088014;29;20273;-75
2023/08/12 13:45:15;;;;;;;2.13;2.03;;;;;;;;;;6087586;29;20233;-81
2023/08/12 13:48:18;;;;;;;1.80;1.70;;;;;;;;;;6087599;29;20336;-78
2023/08/12 13:51:23;;;;;;;2.70;2.47;;;;;;;;;;6087586;29;20261;-78
2023/08/12 13:54:26;;;;;;;5.07;2.15;;;;;;;;;;6082639;29;20313;-78
2023/08/12 13:57:31;;;;;;;2.58;2.38;;;;;;;;;;6072786;29;20296;-77
2023/08/12 14:00:36;;;;;;;4.22;2.55;;;;;;;;;;6072433;29;20585;-78
2023/08/12 14:03:40;;;;;;;2.05;2.05;;;;;;;;;;6072318;29;20293;-79
2023/08/12 14:06:44;;;;;;;3.63;2.53;;;;;;;;;;6063593;29;20329;-79
2023/08/12 14:09:48;;;;;;;2.15;2.05;;;;;;;;;;6046121;29;20298;-79
2023/08/12 14:12:51;;;;;;;2.33;2.25;;;;;;;;;;6026054;29;20366;-80
2023/08/12 14:15:57;;;;;;;2.22;2.10;;;;;;;;;;6025268;29;20294;-79
2023/08/12 14:19:01;;;;;;;2.83;2.10;;;;;;;;;;6025192;29;20310;-80
2023/08/12 14:22:05;;;;;;;2.75;2.40;;;;;;;;;;6025571;29;20294;-80
2023/08/12 14:25:10;;;;;;;2.33;2.08;;;;;;;;;;6025573;29;20571;-79
2023/08/12 14:28:14;;;;;;;3.15;1.90;;;;;;;;;;6025753;29;20294;-80
2023/08/12 14:31:20;;;;;;;3.80;2.05;;;;;;;;;;6026743;29;20298;-79
2023/08/12 14:34:24;;;;;;;1.83;1.83;;;;;;;;;;6036100;29;20293;-80
2023/08/12 14:37:28;;;;;;;2.58;2.20;;;;;;;;;;6047008;29;20305;-80
2023/08/12 14:40:32;;;;;;;4.07;2.33;;;;;;;;;;6047049;29;20317;-81
2023/08/12 14:43:36;;;;;;;2.15;2.05;;;;;;;;;;6047940;29;20305;-82
2023/08/12 14:46:42;;;;;;;1.90;1.90;;;;;;;;;;6062530;29;20302;-83
2023/08/12 14:49:49;;;;;;;2.47;2.28;;;;;;;;;;6047894;29;20475;-82
2023/08/12 14:52:54;;;;;;;1.70;1.70;;;;;;;;;;6047941;29;20301;-77
2023/08/12 14:55:57;;;;;;;1.92;1.83;;;;;;;;;;6046796;29;20310;-82
2023/08/12 14:59:01;;;;;;;2.40;1.77;;;;;;;;;;6047113;29;20297;-79
2023/08/12 15:02:07;;;;;;;2.42;1.80;;;;;;;;;;6047532;29;20305;-78
2023/08/12 15:05:12;;;;;;;1.80;1.80;;;;;;;;;;6050578;29;20309;-79
2023/08/12 15:08:15;;;;;;;3.03;1.90;;;;;;;;;;6070097;29;20589;-81
2023/08/12 15:11:19;;;;;;;2.10;1.90;;;;;;;;;;6056992;29;20302;-80
2023/08/12 15:14:23;;;;;;;1.92;1.80;;;;;;;;;;6046609;29;20302;-81
2023/08/12 15:17:28;;;;;;;2.05;1.80;;;;;;;;;;6047012;29;20302;-82
2023/08/12 15:20:32;;;;;;;1.80;1.80;;;;;;;;;;6046353;29;20301;-80
2023/08/12 15:23:36;;;;;;;2.13;2.03;;;;;;;;;;6046218;29;20346;-78
2023/08/12 15:26:40;;;;;;;2.05;1.95;;;;;;;;;;6046567;29;20301;-80
2023/08/12 15:29:44;;;;;;;2.15;2.00;;;;;;;;;;6046334;29;20301;-79
2023/08/12 15:32:49;;;;;;;4.43;1.98;;;;;;;;;;6046637;29;20309;-79
2023/08/12 15:35:53;;;;;;;3.80;1.83;;;;;;;;;;6045927;29;20306;-84
2023/08/12 15:38:57;;;;;;;2.05;1.70;;;;;;;;;;6045194;29;20495;-79
2023/08/12 15:42:01;;;;;;;1.73;1.70;;;;;;;;;;6046317;29;20309;-79
2023/08/12 15:45:06;;;;;;;3.22;1.73;;;;;;;;;;6045670;29;20477;-78
2023/08/12 15:48:12;;;;;;;2.60;2.22;;;;;;;;;;6045255;29;20330;-79
2023/08/12 15:51:16;;;;;;;5.68;2.30;;;;;;;;;;6048967;29;20585;-80
2023/08/12 15:54:19;;;;;;;4.72;1.90;;;;;;;;;;6045794;29;20468;-80
2023/08/12 15:57:23;;;;;;;1.90;1.80;;;;;;;;;;6044937;29;20317;-78
2023/08/12 16:00:27;;;;;;;4.60;2.45;;;;;;;;;;6045327;29;20309;-78
2023/08/12 16:03:32;;;;;;;8.57;3.42;;;;;;;;;;6043662;29;20293;-78
2023/08/12 16:06:36;;;;;;;4.20;3.10;;;;;;;;;;6045651;29;20298;-78
2023/08/12 16:09:40;;;;;;;2.40;2.17;;;;;;;;;;6047688;29;20303;-80
2023/08/12 16:12:44;;;;;;;1.52;1.52;;;;;;;;;;6069405;29;20250;-78
2023/08/12 16:15:48;;;;;;;1.90;1.80;;;;;;;;;;6070380;29;20308;-82
2023/08/12 16:18:53;;;;;;;2.20;2.10;;;;;;;;;;6068640;29;20301;-79
2023/08/12 16:21:57;;;;;;;1.90;1.80;;;;;;;;;;6069118;29;20408;-79
2023/08/12 16:25:01;;;;;;;2.13;2.03;;;;;;;;;;6070159;29;20301;-76
2023/08/12 16:28:05;;;;;;;3.55;2.15;;;;;;;;;;6068610;29;20301;-77
2023/08/12 16:31:09;;;;;;;1.80;1.80;;;;;;;;;;6067916;29;20466;-78
2023/08/12 16:34:14;;;;;;;6.28;2.10;;;;;;;;;;6058250;29;20297;-78
2023/08/12 16:37:19;;;;;;;2.05;1.98;;;;;;;;;;6046752;29;20345;-79
2023/08/12 16:40:27;;;;;;;2.75;2.17;;;;;;;;;;6045982;29;20594;-80
2023/08/12 16:43:32;;;;;;;4.70;1.95;;;;;;;;;;6046768;29;20297;-80
2023/08/12 16:46:36;;;;;;;4.78;2.70;;;;;;;;;;6046360;29;20349;-77
2023/08/12 16:49:41;;;;;;;2.30;2.17;;;;;;;;;;6045933;29;20306;-77
2023/08/12 16:52:45;;;;;;;2.17;2.08;;;;;;;;;;6046459;29;20306;-81
2023/08/12 16:55:49;;;;;;;6.68;3.70;;;;;;;;;;6045757;29;20313;-80
2023/08/12 16:58:53;;;;;;;2.40;2.30;;;;;;;;;;6046979;29;20610;-79
2023/08/12 17:01:57;;;;;;;1.90;1.90;;;;;;;;;;6048967;29;20320;-79
2023/08/12 17:05:02;;;;;;;3.63;2.67;;;;;;;;;;6049593;29;20305;-79
2023/08/12 17:08:08;;;;;;;5.68;2.50;;;;;;;;;;6049668;29;20302;-78
2023/08/12 17:11:12;;;;;;;2.95;2.75;;;;;;;;;;6063975;29;20297;-80
2023/08/12 17:14:16;;;;;;;3.38;2.80;;;;;;;;;;6072518;29;20305;-79
2023/08/12 17:17:24;;;;;;;2.80;2.70;;;;;;;;;;6067447;29;20301;-79
2023/08/12 17:20:30;;;;;;;2.40;2.30;;;;;;;;;;6067522;29;20293;-79
2023/08/12 17:23:34;;;;;;;3.72;2.47;;;;;;;;;;6073430;29;20297;-79
2023/08/12 17:26:38;;;;;;;2.10;2.00;;;;;;;;;;6074430;29;20604;-80
2023/08/12 17:29:42;;;;;;;3.17;2.45;;;;;;;;;;6072482;29;20308;-78
2023/08/12 17:32:45;;;;;;;2.20;2.10;;;;;;;;;;6073052;29;20292;-80
2023/08/12 17:35:51;;;;;;;2.00;1.90;;;;;;;;;;6049793;29;20558;-78
2023/08/12 17:38:54;;;;;;;2.20;1.98;;;;;;;;;;6049931;29;20293;-82
2023/08/12 17:41:58;;;;;;;1.67;1.67;;;;;;;;;;6050011;29;20499;-81
2023/08/12 17:45:03;;;;;;;2.55;2.40;;;;;;;;;;6049086;29;20302;-80
2023/08/12 17:48:08;;;;;;;2.10;2.00;;;;;;;;;;6049305;29;20357;-79
2023/08/12 17:51:14;;;;;;;2.03;1.92;;;;;;;;;;6049603;29;20361;-81
2023/08/12 17:54:18;;;;;;;1.83;1.73;;;;;;;;;;6049728;29;20301;-79
2023/08/12 17:57:22;;;;;;;2.53;2.17;;;;;;;;;;6039762;29;20598;-80
2023/08/12 18:00:26;;;;;;;2.25;2.10;;;;;;;;;;6049904;29;20305;-79
2023/08/12 18:03:30;;;;;;;6.20;2.10;;;;;;;;;;6048184;29;20306;-78
2023/08/12 18:06:35;;;;;;;2.15;2.00;;;;;;;;;;6040135;29;20316;-78
2023/08/12 18:09:40;;;;;;;2.17;2.08;;;;;;;;;;6027453;29;20306;-79
2023/08/12 18:12:43;;;;;;;1.80;1.80;;;;;;;;;;6049473;29;20246;-78
2023/08/12 18:15:48;;;;;;;2.08;1.90;;;;;;;;;;6048738;29;20301;-78
2023/08/12 18:18:52;;;;;;;2.65;2.05;;;;;;;;;;6048388;29;20298;-77
2023/08/12 18:21:57;;;;;;;2.53;1.80;;;;;;;;;;6048719;29;20305;-77
2023/08/12 18:25:01;;;;;;;1.90;1.80;;;;;;;;;;6048369;29;20297;-78
2023/08/12 18:28:05;;;;;;;3.75;2.28;;;;;;;;;;6048263;29;20297;-78